San Marcos Station Data

Red Flag Warning: No
Fire Weather Zone: 243
SDGE Region: North East
Lat/Lon: 33.129/-117.192

Observations

Time Wind Speed/Gust Temp(F) RH Fuel Moist Fuel Temp(F) Dewpt(F) Tmax(F) Tmin(F) Accum Precip 10-min Precip SL Press(mb)
2/27 11:40pm 262 7 G 12 52° 95% - - 50° 57.1° 47.3° - - -
2/27 11:20pm 246 3 G 7 52° 95% - - 50° 57.1° 47.3° - - -
2/27 11:10pm 260 3 G 6 52° 95% - - 50° 57.1° 47.3° - - -
2/27 11:00pm 258 4 G 8 52° 95% - - 51° 57.1° 47.3° - - -
2/27 10:50pm 252 5 G 11 52° 95% - - 51° 57.1° 47.3° - - -
2/27 10:40pm 254 2 G 6 53° 95% - - 51° 57.1° 47.3° - - -
2/27 10:30pm 250 1 G 2 53° 95% - - 51° 57.1° 47.3° - - -
2/27 10:20pm 226 1 G 2 52° 95% - - 51° 57.1° 47.3° - - -
2/27 10:10pm 240 2 G 4 52° 95% - - 51° 57.1° 47.3° - - -
2/27 10:00pm 235 2 G 4 53° 95% - - 51° 57.1° 47.3° - - -
2/27 9:50pm 258 2 G 4 53° 95% - - 51° 57.1° 47.3° - - -
2/27 9:40pm 264 1 G 3 53° 95% - - 51° 57.1° 47.3° - - -
2/27 9:30pm 287 2 G 5 53° 95% - - 51° 57.1° 47.3° - - -
2/27 9:20pm 271 3 G 6 53° 95% - - 51° 57.1° 47.3° - - -
2/27 9:10pm 254 1 G 4 53° 95% - - 51° 57.1° 47.3° - - -
2/27 9:00pm 247 2 G 3 53° 95% - - 51° 57.1° 47.3° - - -
2/27 8:50pm 264 2 G 3 53° 95% - - 52° 57.1° 47.3° - - -
2/27 8:40pm 266 1 G 3 53° 95% - - 52° 57.1° 47.3° - - -
2/27 8:30pm 255 1 G 3 53° 95% - - 52° 57.1° 47.3° - - -
2/27 8:20pm 286 0 G 1 53° 95% - - 52° 57.1° 47.3° - - -
2/27 8:10pm 243 0 G 2 53° 94% - - 52° 57.1° 47.3° - - -
2/27 8:00pm 229 1 G 2 53° 94% - - 52° 57.1° 47.3° - - -
2/27 7:50pm 244 1 G 2 53° 94% - - 52° 57.1° 47.3° - - -
2/27 7:40pm 252 2 G 5 54° 94% - - 52° 57.1° 47.3° - - -
2/27 7:30pm 272 4 G 8 54° 94% - - 53° 57.1° 47.3° - - -
2/27 7:20pm 228 3 G 6 55° 93% - - 53° 57.1° 47.3° - - -
2/27 7:10pm 223 5 G 9 55° 92% - - 53° 57.1° 47.3° - - -
2/27 7:00pm 201 8 G 14 55° 92% - - 52° 57.1° 47.3° - - -
2/27 6:50pm 204 7 G 12 55° 91% - - 52° 57.1° 47.3° - - -
2/27 6:40pm 197 10 G 21 55° 91% - - 52° 57.1° 47.3° - - -
2/27 6:30pm 206 10 G 21 55° 93% - - 53° 57.1° 47.3° - - -
2/27 6:20pm 233 7 G 16 55° 92% - - 53° 57.1° 47.3° - - -
2/27 6:10pm 214 9 G 18 56° 91% - - 53° 57.1° 47.3° - - -
2/27 6:00pm 212 11 G 23 56° 90% - - 53° 57.1° 47.3° - - -
2/27 5:50pm 199 11 G 22 56° 91% - - 53° 57.1° 47.3° - - -
2/27 5:40pm 197 13 G 25 56° 90% - - 53° 57.1° 47.3° - - -
2/27 5:30pm 194 14 G 25 56° 91% - - 53° 57.1° 47.3° - - -
2/27 5:20pm 198 12 G 25 56° 91% - - 53° 57.1° 47.3° - - -
2/27 5:10pm 194 15 G 28 56° 91% - - 53° 57.1° 47.3° - - -
2/27 5:00pm 204 13 G 26 56° 90% - - 53° 57.1° 47.3° - - -
2/27 4:50pm 207 13 G 29 56° 89% - - 53° 57.1° 47.3° - - -
2/27 4:40pm 200 12 G 28 56° 90% - - 53° 57.1° 47.3° - - -
2/27 4:30pm 197 14 G 23 56° 91% - - 53° 57.1° 47.3° - - -
2/27 4:20pm 205 13 G 29 56° 92% - - 53° 57.1° 47.3° - - -
2/27 4:10pm 207 11 G 23 56° 91% - - 53° 57.1° 47.3° - - -
2/27 4:00pm 202 12 G 23 55° 90% - - 53° 57.1° 47.3° - - -
2/27 3:50pm 210 11 G 25 56° 91% - - 53° 57.1° 47.3° - - -
2/27 3:40pm 191 7 G 18 56° 91% - - 53° 57.1° 47.3° - - -
2/27 3:30pm 182 9 G 18 56° 90% - - 53° 57.1° 47.3° - - -
2/27 3:20pm 189 12 G 26 56° 90% - - 53° 57.1° 47.3° - - -
2/27 3:10pm 189 11 G 22 56° 90% - - 53° 57.1° 47.3° - - -
2/27 3:00pm 190 10 G 24 56° 90% - - 53° 57.1° 47.3° - - -
2/27 2:50pm 193 14 G 31 56° 90% - - 53° 57.1° 47.3° - - -
2/27 2:40pm 190 12 G 22 56° 91% - - 54° 57.1° 47.3° - - -
2/27 2:30pm 185 10 G 26 57° 90% - - 54° 57.1° 47.3° - - -
2/27 2:20pm 183 14 G 27 56° 91% - - 54° 57.1° 47.3° - - -
2/27 2:10pm 188 11 G 25 56° 92% - - 54° 57.1° 47.3° - - -
2/27 2:00pm 199 15 G 29 56° 92% - - 54° 57.1° 47.3° - - -
2/27 1:50pm 196 14 G 27 56° 91% - - 54° 57.1° 47.3° - - -
2/27 1:40pm 196 15 G 26 56° 91% - - 54° 57.1° 47.3° - - -
2/27 1:30pm 194 13 G 26 56° 91% - - 54° 57.1° 47.3° - - -
2/27 1:20pm 191 15 G 27 56° 91% - - 54° 57.1° 47.3° - - -
2/27 1:10pm 197 13 G 25 56° 91% - - 54° 57.1° 47.3° - - -
2/27 1:00pm 192 13 G 29 56° 91% - - 54° 57.1° 47.3° - - -
2/27 12:50pm 197 13 G 28 56° 92% - - 54° 57.1° 47.3° - - -
2/27 12:40pm 196 13 G 33 56° 92% - - 54° 57.1° 47.3° - - -
2/27 12:30pm 194 12 G 27 56° 91% - - 54° 57.1° 47.3° - - -
2/27 12:20pm 196 12 G 23 56° 91% - - 54° 57.1° 47.3° - - -
2/27 12:10pm 191 8 G 19 56° 92% - - 54° 57.1° 47.3° - - -
2/27 12:00pm 187 7 G 16 56° 91% - - 53° 57.1° 47.3° - - -
2/27 11:50am 190 10 G 22 55° 90% - - 53° 57.1° 47.3° - - -
2/27 11:40am 189 9 G 15 55° 91% - - 53° 57.1° 47.3° - - -
2/27 11:30am 187 7 G 16 55° 92% - - 53° 57.1° 47.3° - - -
2/27 11:20am 208 4 G 8 56° 91% - - 53° 57.1° 47.3° - - -
2/27 11:10am 186 7 G 18 56° 90% - - 53° 57.1° 47.3° - - -
2/27 11:00am 187 10 G 20 56° 90% - - 53° 57.1° 47.3° - - -
2/27 10:50am 189 9 G 20 56° 91% - - 54° 57.1° 47.3° - - -
2/27 10:40am 177 11 G 18 56° 91% - - 54° 57.1° 47.3° - - -
2/27 10:30am 178 11 G 20 56° 91% - - 54° 57.1° 47.3° - - -
2/27 10:20am 183 11 G 21 56° 91% - - 54° 57.1° 47.3° - - -
2/27 10:10am 185 10 G 20 56° 92% - - 54° 57.1° 47.3° - - -
2/27 10:00am 190 9 G 19 56° 91% - - 54° 57.1° 47.3° - - -
2/27 9:50am 184 9 G 17 56° 91% - - 54° 57.1° 47.3° - - -
2/27 9:40am 187 8 G 17 56° 91% - - 54° 57.1° 47.3° - - -
2/27 9:30am 198 11 G 23 56° 91% - - 54° 57.1° 47.3° - - -
2/27 9:20am 194 11 G 21 56° 91% - - 54° 57.1° 47.3° - - -
2/27 9:10am 188 9 G 17 56° 91% - - 54° 57.1° 47.3° - - -
2/27 9:00am 197 8 G 18 56° 92% - - 54° 57.1° 47.3° - - -
2/27 8:50am 199 9 G 15 57° 92% - - 54° 57.1° 47.3° - - -
2/27 8:40am 190 8 G 15 57° 92% - - 54° 57.1° 47.3° - - -
2/27 8:30am 191 6 G 16 56° 92% - - 54° 57.1° 47.3° - - -
2/27 8:20am 188 8 G 22 57° 92% - - 54° 57.1° 47.3° - - -
2/27 8:10am 181 8 G 17 56° 92% - - 54° 57.1° 47.3° - - -
2/27 8:00am 179 9 G 20 56° 92% - - 54° 57.1° 47.3° - - -
2/27 7:50am 191 7 G 14 56° 92% - - 54° 56.9° 47.3° - - -
2/27 7:40am 194 10 G 20 56° 92% - - 54° 56.9° 47.3° - - -
2/27 7:30am 194 8 G 14 56° 93% - - 54° 56.8° 47.3° - - -
2/27 7:20am 183 7 G 20 56° 94% - - 54° 56.6° 47.3° - - -
2/27 7:10am 195 8 G 14 56° 95% - - 55° 56.6° 47.3° - - -
2/27 7:00am 192 10 G 19 56° 95% - - 54° 56.5° 47.3° - - -
2/27 6:50am 195 9 G 21 55° 95% - - 54° 56.1° 47.3° - - -
2/27 6:40am 146 4 G 13 53° 95% - - 52° 55° 47.3° - - -
2/27 6:30am 69 3 G 5 51° 95% - - 50° 51.6° 47.3° - - -
2/27 6:20am 19 2 G 4 50° 95% - - 49° 51° 47.3° - - -
2/27 6:10am 42 2 G 5 50° 95% - - 49° 50.6° 47.3° - - -
2/27 6:00am 62 2 G 4 50° 95% - - 48° 50.6° 47.3° - - -
2/27 5:50am 71 4 G 7 50° 95% - - 48° 50.6° 47.3° - - -
2/27 5:40am 97 1 G 3 50° 95% - - 49° 50.6° 47.3° - - -
2/27 5:30am 81 2 G 5 50° 95% - - 48° 50.5° 47.3° - - -
2/27 5:20am 39 1 G 3 50° 95% - - 48° 50.5° 47.3° - - -
2/27 5:10am 103 2 G 3 50° 95% - - 48° 50.5° 47.3° - - -
2/27 5:00am 101 1 G 3 49° 94% - - 48° 50.5° 47.3° - - -
2/27 4:50am 34 1 G 4 49° 94% - - 48° 50.5° 47.3° - - -
2/27 4:40am 14 3 G 6 49° 94% - - 48° 50.5° 47.3° - - -
2/27 4:30am 47 2 G 4 49° 94% - - 48° 50.5° 47.3° - - -
2/27 4:20am 49 2 G 6 49° 94% - - 47° 50.5° 47.3° - - -
2/27 4:10am 70 4 G 7 49° 93% - - 47° 50.5° 47.3° - - -
2/27 4:00am 75 4 G 7 49° 93% - - 47° 50.5° 47.3° - - -
2/27 3:50am 75 5 G 8 49° 93% - - 47° 50.5° 47.3° - - -
2/27 3:40am 70 5 G 8 49° 93% - - 47° 50.5° 47.3° - - -
2/27 3:30am 70 5 G 8 49° 93% - - 47° 50.5° 47.3° - - -
2/27 3:20am 70 5 G 9 49° 93% - - 47° 50.5° 47.3° - - -
2/27 3:10am 71 6 G 9 48° 93% - - 47° 50.5° 47.3° - - -
2/27 3:00am 55 4 G 7 48° 93% - - 46° 50.5° 47.3° - - -
2/27 2:50am 54 3 G 6 48° 93% - - 46° 50.5° 47.3° - - -
2/27 2:40am 66 4 G 8 48° 93% - - 46° 50.5° 47.3° - - -
2/27 2:30am 68 4 G 8 48° 92% - - 46° 50.5° 47.3° - - -
2/27 2:20am 65 4 G 8 48° 92% - - 46° 50.5° 47.3° - - -
2/27 2:10am 64 4 G 9 48° 92% - - 45° 50.5° 47.3° - - -
2/27 2:00am 62 4 G 8 48° 91% - - 45° 50.5° 47.4° - - -
2/27 1:50am 67 4 G 7 48° 90% - - 45° 50.5° 47.4° - - -
2/27 1:40am 56 4 G 7 48° 87% - - 44° 50.5° 47.5° - - -
2/27 1:30am 50 3 G 5 48° 84% - - 44° 50.5° 47.7° - - -
2/27 1:20am 63 3 G 5 49° 81% - - 44° 50.5° 47.7° - - -
2/27 1:10am 70 3 G 5 49° 80% - - 44° 50.5° 47.7° - - -
2/27 1:00am 97 5 G 8 50° 78% - - 43° 50.5° 47.7° - - -
2/27 12:50am 97 6 G 11 50° 75% - - 42° 50.5° 47.7° - - -
2/27 12:40am 88 4 G 8 50° 73% - - 42° 50.5° 47.7° - - -
2/27 12:30am 79 4 G 8 49° 77% - - 42° 50.5° 47.7° - - -
2/27 12:20am 28 2 G 4 48° 79% - - 42° 49° 47.7° - - -
2/27 12:10am 56 2 G 4 48° 79% - - 42° 48.9° 47.7° - - -
2/27 12:00am 62 3 G 5 48° 79% - - 42° 57.3° 46.9° - - -
2/26 11:50pm 69 4 G 7 48° 79% - - 42° 57.3° 46.9° - - -
2/26 11:40pm 62 5 G 7 48° 80% - - 42° 57.3° 46.9° - - -
2/26 11:30pm 58 3 G 5 48° 81% - - 42° 57.3° 46.9° - - -
2/26 11:20pm 58 3 G 4 48° 81% - - 42° 57.3° 46.9° - - -
2/26 11:10pm 58 2 G 4 47° 82% - - 42° 57.3° 46.9° - - -
2/26 11:00pm 63 2 G 3 47° 82% - - 42° 57.3° 46.9° - - -
2/26 10:50pm 86 1 G 2 48° 79% - - 42° 57.3° 47.4° - - -
2/26 10:40pm 95 2 G 3 48° 79% - - 42° 57.3° 47.4° - - -
2/26 10:30pm 63 1 G 2 48° 79% - - 42° 57.3° 47.4° - - -
2/26 10:20pm 82 1 G 2 49° 77% - - 42° 57.3° 48° - - -
2/26 10:10pm 104 3 G 4 49° 77% - - 42° 57.3° 48.1° - - -
2/26 10:00pm 118 3 G 5 49° 77% - - 42° 57.3° 48.1° - - -
2/26 9:50pm 112 2 G 4 49° 78% - - 42° 57.3° 48.1° - - -
2/26 9:40pm 101 3 G 3 49° 79% - - 42° 57.3° 48.1° - - -
2/26 9:30pm 109 1 G 2 49° 77% - - 42° 57.3° 48.4° - - -
2/26 9:20pm 106 1 G 3 50° 75% - - 42° 57.3° 48.6° - - -
2/26 9:10pm 130 2 G 4 50° 74% - - 42° 57.3° 48.6° - - -
2/26 9:00pm 137 4 G 6 50° 73% - - 42° 57.3° 48.6° - - -
2/26 8:50pm 145 3 G 4 51° 73% - - 43° 57.3° 48.6° - - -
2/26 8:40pm 147 3 G 6 52° 71% - - 43° 57.3° 48.6° - - -
2/26 8:30pm 157 2 G 6 52° 71% - - 43° 57.3° 48.6° - - -
2/26 8:20pm 158 2 G 5 52° 71% - - 43° 57.3° 48.6° - - -
2/26 8:10pm 157 3 G 5 52° 71% - - 43° 57.3° 48.6° - - -
2/26 8:00pm 161 3 G 6 52° 71% - - 43° 57.3° 48.6° - - -
2/26 7:50pm 163 4 G 7 52° 71% - - 43° 57.3° 48.6° - - -
2/26 7:40pm 171 3 G 5 52° 73% - - 43° 57.3° 48.6° - - -
2/26 7:30pm 161 2 G 5 51° 75% - - 44° 57.3° 48.6° - - -
2/26 7:20pm 169 1 G 3 51° 77% - - 44° 57.3° 48.6° - - -
2/26 7:10pm 131 1 G 2 51° 76% - - 44° 57.3° 48.6° - - -
2/26 7:00pm 149 2 G 4 52° 73% - - 44° 57.3° 48.6° - - -
2/26 6:50pm 176 3 G 6 52° 72% - - 43° 57.3° 48.6° - - -
2/26 6:40pm 171 3 G 6 52° 72% - - 44° 57.3° 48.6° - - -
2/26 6:30pm 193 2 G 5 52° 74% - - 44° 57.3° 48.6° - - -
2/26 6:20pm 202 2 G 3 52° 75% - - 44° 57.3° 48.6° - - -
2/26 6:10pm 209 2 G 5 52° 75% - - 44° 57.3° 48.6° - - -
2/26 6:00pm 231 3 G 7 52° 74% - - 44° 57.3° 48.6° - - -
2/26 5:50pm 243 3 G 6 53° 73% - - 44° 57.3° 48.6° - - -
2/26 5:40pm 235 3 G 7 53° 72% - - 44° 57.3° 48.6° - - -
2/26 5:30pm 236 4 G 8 53° 72% - - 44° 57.3° 48.6° - - -
2/26 5:20pm 234 5 G 12 53° 70% - - 44° 57.3° 48.6° - - -
2/26 5:10pm 233 4 G 9 54° 69% - - 44° 57.3° 48.6° - - -
2/26 5:00pm 223 4 G 8 54° 71% - - 45° 57.3° 48.6° - - -